Time;durP1;ratioP1;P1;durP2;ratioP2;P2;SDS_P1;SDS_P2;PMS_P1;PMS_P2;Temp;Humidity;BMP_temperature;BMP_pressure;BME280_temperature;BME280_humidity;BME280_pressure;Samples;Min_cycle;Max_cycle;Signal;HPM_P1;HPM_P2
2021/10/21 00:01:19;;;;;;;162.97;155.40;;;13.50;99.90;;;;;;4365285;32;20183;-64
2021/10/21 00:03:46;;;;;;;161.53;153.90;;;13.50;99.90;;;;;;4367013;32;20184;-64
2021/10/21 00:06:12;;;;;;;177.53;169.17;;;13.60;99.90;;;;;;4366679;32;20195;-64
2021/10/21 00:08:39;;;;;;;173.07;164.80;;;13.60;99.90;;;;;;4368946;32;20540;-64
2021/10/21 00:11:08;;;;;;;167.53;159.63;;;13.70;99.90;;;;;;4366067;32;20176;-65
2021/10/21 00:13:36;;;;;;;161.30;153.50;;;13.70;99.90;;;;;;4375473;32;20167;-64
2021/10/21 00:16:03;;;;;;;162.33;154.43;;;13.60;99.90;;;;;;4362733;32;20178;-64
2021/10/21 00:18:32;;;;;;;160.73;152.83;;;13.70;99.90;;;;;;4361191;32;20157;-64
2021/10/21 00:20:59;;;;;;;152.97;145.30;;;13.70;99.90;;;;;;4360603;33;20176;-64
2021/10/21 00:23:25;;;;;;;139.23;132.73;;;13.70;99.90;;;;;;4361033;33;20153;-64
2021/10/21 00:25:52;;;;;;;160.27;153.17;;;13.70;99.90;;;;;;4360461;33;20180;-64
2021/10/21 00:28:19;;;;;;;149.20;142.47;;;13.70;99.90;;;;;;4361019;33;20149;-64
2021/10/21 00:30:46;;;;;;;155.37;148.37;;;13.70;99.90;;;;;;4362144;32;20182;-65
2021/10/21 00:33:13;;;;;;;159.17;152.13;;;13.70;99.90;;;;;;4362612;32;20161;-64
2021/10/21 00:35:41;;;;;;;168.27;160.53;;;13.70;99.90;;;;;;4361913;32;20585;-64
2021/10/21 00:38:10;;;;;;;169.30;161.50;;;13.70;99.90;;;;;;4362446;32;20199;-64
2021/10/21 00:40:37;;;;;;;163.00;155.67;;;13.70;99.90;;;;;;4361817;32;20207;-64
2021/10/21 00:43:04;;;;;;;161.93;154.30;;;13.70;99.90;;;;;;4360686;32;20156;-63
2021/10/21 00:45:31;;;;;;;160.87;153.43;;;13.70;99.90;;;;;;4360327;32;20580;-64
2021/10/21 00:47:58;;;;;;;155.93;148.93;;;13.70;99.90;;;;;;4360660;32;20213;-64
2021/10/21 00:50:25;;;;;;;164.33;156.87;;;13.80;99.90;;;;;;4361871;32;20556;-63
2021/10/21 00:52:53;;;;;;;161.87;154.27;;;13.80;99.90;;;;;;4360549;32;20180;-64
2021/10/21 00:55:21;;;;;;;157.63;150.57;;;13.80;99.90;;;;;;4360652;32;20583;-63
2021/10/21 00:57:49;;;;;;;156.80;149.70;;;13.80;99.90;;;;;;4361108;32;20591;-64
2021/10/21 01:00:16;;;;;;;131.33;125.50;;;13.80;99.90;;;;;;4361540;32;20497;-63
2021/10/21 01:02:43;;;;;;;133.80;127.93;;;13.70;99.90;;;;;;4361786;32;20512;-65
2021/10/21 01:05:11;;;;;;;137.33;131.43;;;13.70;99.90;;;;;;4360222;33;20160;-64
2021/10/21 01:07:38;;;;;;;117.37;112.30;;;13.40;99.90;;;;;;4360400;32;20268;-65
2021/10/21 01:10:08;;;;;;;118.87;113.67;;;12.90;99.90;;;;;;4359908;32;20586;-63
2021/10/21 01:12:35;;;;;;;121.00;115.73;;;12.50;99.90;;;;;;4361801;32;20480;-64
2021/10/21 01:15:19;;;;;;;133.40;127.70;;;12.20;99.90;;;;;;4359756;33;20227;-64
2021/10/21 01:17:46;;;;;;;138.70;133.07;;;12.10;99.90;;;;;;4362116;32;20481;-63
2021/10/21 01:20:14;;;;;;;149.67;143.57;;;11.90;99.90;;;;;;4360193;32;20195;-64
2021/10/21 01:22:42;;;;;;;136.60;130.63;;;11.80;99.90;;;;;;4360540;33;20174;-64
2021/10/21 01:25:09;;;;;;;144.43;138.17;;;11.60;99.90;;;;;;4360978;33;20172;-64
2021/10/21 01:27:36;;;;;;;137.30;131.20;;;11.60;99.90;;;;;;4360536;33;20160;-64
2021/10/21 01:30:04;;;;;;;132.03;126.33;;;11.50;99.90;;;;;;4362142;33;20588;-64
2021/10/21 01:32:34;;;;;;;131.97;126.37;;;11.50;99.90;;;;;;4359827;33;20179;-64
2021/10/21 01:35:02;;;;;;;135.97;130.27;;;11.40;99.90;;;;;;4355153;33;20156;-64
2021/10/21 01:37:31;;;;;;;127.27;121.83;;;11.50;99.90;;;;;;4356041;33;20239;-64
2021/10/21 01:39:57;;;;;;;126.13;121.03;;;11.40;99.90;;;;;;4360477;33;20168;-64
2021/10/21 01:42:24;;;;;;;127.57;122.00;;;11.50;99.90;;;;;;4361204;33;20172;-64
2021/10/21 01:44:52;;;;;;;132.60;126.90;;;11.50;99.90;;;;;;4360964;33;20191;-64
2021/10/21 01:47:19;;;;;;;130.13;124.80;;;11.40;99.90;;;;;;4359600;33;20200;-64
2021/10/21 01:49:46;;;;;;;136.87;131.07;;;11.40;99.90;;;;;;4361984;33;20152;-64
2021/10/21 01:52:14;;;;;;;138.90;132.87;;;11.30;99.90;;;;;;4359842;33;20160;-64
2021/10/21 01:54:43;;;;;;;137.07;131.20;;;11.30;99.90;;;;;;4361872;33;20208;-64
2021/10/21 01:57:10;;;;;;;144.87;138.23;;;11.30;99.90;;;;;;4361375;32;20179;-64
2021/10/21 01:59:38;;;;;;;143.03;136.97;;;11.40;99.90;;;;;;4360300;33;20156;-64
2021/10/21 02:02:05;;;;;;;138.83;132.70;;;11.30;99.90;;;;;;4371989;32;20205;-64
2021/10/21 02:04:31;;;;;;;159.63;153.17;;;11.30;99.90;;;;;;4375092;32;20152;-64
2021/10/21 02:06:58;;;;;;;153.00;146.37;;;11.30;99.90;;;;;;4364777;32;20215;-64
2021/10/21 02:09:25;;;;;;;137.77;132.13;;;11.30;99.90;;;;;;4360309;33;20220;-64
2021/10/21 02:11:53;;;;;;;140.17;134.47;;;11.30;99.90;;;;;;4362504;32;20176;-64
2021/10/21 02:14:20;;;;;;;137.97;132.27;;;11.20;99.90;;;;;;4363824;32;20187;-64
2021/10/21 02:16:49;;;;;;;142.17;136.30;;;11.20;99.90;;;;;;4363327;32;20523;-64
2021/10/21 02:19:16;;;;;;;128.10;122.77;;;11.20;99.90;;;;;;4363263;32;20176;-64
2021/10/21 02:21:42;;;;;;;142.53;136.73;;;11.10;99.90;;;;;;4362627;33;20187;-64
2021/10/21 02:24:09;;;;;;;115.30;110.27;;;11.30;99.90;;;;;;4362867;33;20208;-64
2021/10/21 02:26:36;;;;;;;120.77;115.43;;;11.30;99.90;;;;;;4362697;32;20180;-64
2021/10/21 02:29:04;;;;;;;102.67;98.30;;;11.20;99.90;;;;;;4362628;33;20153;-64
2021/10/21 02:31:31;;;;;;;86.57;82.97;;;11.20;99.90;;;;;;4362344;33;20175;-64
2021/10/21 02:33:58;;;;;;;84.60;81.23;;;11.20;99.90;;;;;;4362976;32;20370;-64
2021/10/21 02:36:26;;;;;;;95.57;91.47;;;11.10;99.90;;;;;;4361942;33;20187;-64
2021/10/21 02:38:53;;;;;;;97.50;93.43;;;11.10;99.90;;;;;;4364182;32;20561;-64
2021/10/21 02:41:19;;;;;;;108.80;104.20;;;11.00;99.90;;;;;;4362371;32;20175;-64
2021/10/21 02:43:46;;;;;;;108.33;103.53;;;11.00;99.90;;;;;;4363032;32;20155;-64
2021/10/21 02:46:15;;;;;;;126.43;120.83;;;10.90;99.90;;;;;;4363076;32;20205;-64
2021/10/21 02:48:41;;;;;;;125.67;120.10;;;10.80;99.90;;;;;;4362493;33;20176;-65
2021/10/21 02:51:08;;;;;;;136.77;130.80;;;10.80;99.90;;;;;;4357293;32;20264;-64
2021/10/21 02:53:35;;;;;;;138.83;133.10;;;10.80;99.90;;;;;;4362501;32;20199;-65
2021/10/21 02:56:02;;;;;;;141.97;135.77;;;10.80;99.90;;;;;;4361268;33;20593;-64
2021/10/21 02:58:30;;;;;;;171.13;163.83;;;10.80;99.90;;;;;;4352119;32;20272;-65
2021/10/21 03:00:58;;;;;;;158.23;150.83;;;10.80;99.90;;;;;;4348133;33;20604;-64
2021/10/21 03:03:26;;;;;;;154.93;148.50;;;10.80;99.90;;;;;;4363943;32;20558;-64
2021/10/21 03:05:53;;;;;;;160.87;153.97;;;10.90;99.90;;;;;;4362676;32;20154;-64
2021/10/21 03:08:19;;;;;;;158.77;152.13;;;10.80;99.90;;;;;;4360994;33;20491;-64
2021/10/21 03:10:48;;;;;;;151.00;144.67;;;10.80;99.90;;;;;;4361401;32;20185;-64
2021/10/21 03:13:15;;;;;;;156.93;149.63;;;10.80;99.90;;;;;;4363022;32;20156;-65
2021/10/21 03:15:42;;;;;;;160.40;153.27;;;10.80;99.90;;;;;;4361530;32;20165;-64
2021/10/21 03:18:08;;;;;;;152.57;145.83;;;10.80;99.90;;;;;;4362684;32;20560;-64
2021/10/21 03:20:36;;;;;;;143.03;136.80;;;10.80;99.90;;;;;;4362654;32;20220;-65
2021/10/21 03:23:06;;;;;;;162.83;155.07;;;10.90;99.90;;;;;;4361967;32;20183;-64
2021/10/21 03:25:33;;;;;;;146.23;139.87;;;10.90;99.90;;;;;;4362775;32;20160;-64
2021/10/21 03:28:00;;;;;;;153.70;146.97;;;10.90;99.90;;;;;;4362686;32;20599;-64
2021/10/21 03:30:27;;;;;;;151.90;145.07;;;10.90;99.90;;;;;;4361517;32;20153;-65
2021/10/21 03:32:54;;;;;;;156.97;150.27;;;10.90;99.90;;;;;;4363004;32;20588;-65
2021/10/21 03:35:21;;;;;;;154.70;148.33;;;11.00;99.90;;;;;;4361148;32;20165;-65
2021/10/21 03:37:49;;;;;;;155.43;148.60;;;11.00;99.90;;;;;;4361374;33;20203;-65
2021/10/21 03:40:16;;;;;;;146.27;139.83;;;11.00;99.90;;;;;;4362232;32;20530;-64
2021/10/21 03:42:43;;;;;;;156.23;149.73;;;11.00;99.90;;;;;;4362497;32;20595;-64
2021/10/21 03:45:10;;;;;;;147.50;141.27;;;11.00;99.90;;;;;;4362735;32;20157;-64
2021/10/21 03:47:37;;;;;;;151.43;145.13;;;11.10;99.90;;;;;;4361572;32;20207;-64
2021/10/21 03:50:04;;;;;;;150.37;144.13;;;11.10;99.90;;;;;;4361390;32;20173;-64
2021/10/21 03:52:31;;;;;;;148.10;141.57;;;11.10;99.90;;;;;;4361477;33;20149;-64
2021/10/21 03:54:59;;;;;;;152.90;146.20;;;11.10;99.90;;;;;;4360879;33;20161;-64
2021/10/21 03:57:26;;;;;;;153.37;146.77;;;11.10;99.90;;;;;;4361111;33;20176;-64
2021/10/21 03:59:53;;;;;;;153.33;146.40;;;11.10;99.90;;;;;;4361431;33;20176;-64
2021/10/21 04:02:20;;;;;;;164.63;157.47;;;11.20;99.90;;;;;;4360968;33;20172;-63
2021/10/21 04:04:47;;;;;;;148.80;142.47;;;11.20;99.90;;;;;;4361330;32;20157;-63
2021/10/21 04:07:14;;;;;;;152.57;145.17;;;11.20;99.90;;;;;;4360576;32;20202;-63
2021/10/21 04:09:40;;;;;;;145.93;139.83;;;11.20;99.90;;;;;;4360932;32;20216;-63
2021/10/21 04:12:09;;;;;;;159.27;152.63;;;11.20;99.90;;;;;;4361114;32;20183;-64
2021/10/21 04:14:35;;;;;;;147.73;140.97;;;11.20;99.90;;;;;;4362840;32;20161;-64
2021/10/21 04:17:02;;;;;;;146.97;140.57;;;11.20;99.90;;;;;;4360754;32;20156;-64
2021/10/21 04:19:29;;;;;;;144.30;138.07;;;11.20;99.90;;;;;;4359239;32;20195;-64
2021/10/21 04:21:56;;;;;;;146.90;140.47;;;11.30;99.90;;;;;;4360697;32;20164;-64
2021/10/21 04:24:23;;;;;;;151.70;145.00;;;11.30;99.90;;;;;;4361044;32;20153;-63
2021/10/21 04:26:50;;;;;;;147.50;140.50;;;11.30;99.90;;;;;;4360725;32;20192;-64
2021/10/21 04:29:18;;;;;;;146.70;140.20;;;11.30;99.90;;;;;;4361947;32;20592;-64
2021/10/21 04:31:45;;;;;;;148.13;141.37;;;11.30;99.90;;;;;;4360834;32;20180;-64
2021/10/21 04:34:12;;;;;;;148.60;142.23;;;11.30;99.90;;;;;;4361516;32;20616;-64
2021/10/21 04:36:39;;;;;;;151.13;144.37;;;11.30;99.90;;;;;;4352594;32;20164;-64
2021/10/21 04:39:06;;;;;;;154.03;146.97;;;11.30;99.90;;;;;;4360758;33;20148;-64
2021/10/21 04:41:33;;;;;;;153.77;146.93;;;11.30;99.90;;;;;;4360686;32;20156;-64
2021/10/21 04:44:00;;;;;;;152.97;146.00;;;11.30;99.90;;;;;;4360828;32;20207;-64
2021/10/21 04:46:28;;;;;;;161.73;154.37;;;11.20;99.90;;;;;;4360366;33;20172;-64
2021/10/21 04:48:55;;;;;;;150.47;143.47;;;11.20;99.90;;;;;;4361725;32;20153;-65
2021/10/21 04:51:22;;;;;;;143.50;137.03;;;11.30;99.90;;;;;;4360811;32;20311;-64
2021/10/21 04:53:49;;;;;;;155.03;148.47;;;11.30;99.90;;;;;;4360659;33;20171;-64
2021/10/21 04:56:16;;;;;;;141.47;135.23;;;11.30;99.90;;;;;;4360329;33;20577;-64
2021/10/21 04:58:43;;;;;;;149.93;143.53;;;11.30;99.90;;;;;;4360700;32;20190;-64
2021/10/21 05:01:10;;;;;;;150.40;143.93;;;11.30;99.90;;;;;;4359990;32;20200;-64
2021/10/21 05:03:38;;;;;;;152.70;145.80;;;11.30;99.90;;;;;;4360620;33;20216;-64
2021/10/21 05:06:10;;;;;;;156.70;149.93;;;11.30;99.90;;;;;;4359895;33;20182;-64
2021/10/21 05:08:36;;;;;;;148.43;142.33;;;11.20;99.90;;;;;;4362368;32;20156;-64
2021/10/21 05:11:04;;;;;;;150.43;144.23;;;11.10;99.90;;;;;;4360016;33;20156;-64
2021/10/21 05:13:32;;;;;;;148.60;142.47;;;10.90;99.90;;;;;;4361124;32;20668;-64
2021/10/21 05:15:59;;;;;;;118.17;113.47;;;10.80;99.90;;;;;;4366023;32;20165;-64
2021/10/21 05:18:26;;;;;;;129.33;123.87;;;10.60;99.90;;;;;;4360231;32;20148;-64
2021/10/21 05:20:54;;;;;;;139.20;133.47;;;10.60;99.90;;;;;;4360660;32;20175;-63
2021/10/21 05:23:21;;;;;;;123.83;118.77;;;10.50;99.90;;;;;;4361480;33;20616;-64
2021/10/21 05:25:48;;;;;;;123.37;118.40;;;10.40;99.90;;;;;;4359532;32;20589;-64
2021/10/21 05:28:14;;;;;;;140.30;134.57;;;10.40;99.90;;;;;;4361147;33;20482;-65
2021/10/21 05:30:42;;;;;;;144.50;138.73;;;10.20;99.90;;;;;;4360122;33;20203;-64
2021/10/21 05:33:10;;;;;;;129.10;123.67;;;10.20;99.90;;;;;;4360325;33;20596;-64
2021/10/21 05:35:37;;;;;;;123.97;119.03;;;10.20;99.90;;;;;;4359727;33;20209;-64
2021/10/21 05:38:05;;;;;;;138.13;132.43;;;10.30;99.90;;;;;;4360798;33;20178;-64
2021/10/21 05:40:32;;;;;;;142.17;136.23;;;10.30;99.90;;;;;;4361253;33;20183;-64
2021/10/21 05:42:59;;;;;;;136.03;130.43;;;10.20;99.90;;;;;;4360379;33;20149;-63
2021/10/21 05:45:26;;;;;;;141.87;135.97;;;10.30;99.90;;;;;;4360023;32;20175;-64
2021/10/21 05:47:53;;;;;;;136.63;130.37;;;10.30;99.90;;;;;;4361155;32;20160;-64
2021/10/21 05:50:19;;;;;;;145.63;139.43;;;10.20;99.90;;;;;;4363435;32;20485;-64
2021/10/21 05:52:48;;;;;;;139.33;133.70;;;10.20;99.90;;;;;;4364928;32;20160;-64
2021/10/21 05:55:16;;;;;;;147.60;141.43;;;10.20;99.90;;;;;;4362599;33;20221;-64
2021/10/21 05:57:43;;;;;;;136.90;130.87;;;10.20;99.90;;;;;;4363059;33;20189;-64
2021/10/21 06:00:11;;;;;;;131.43;125.57;;;10.10;99.90;;;;;;4363152;32;20164;-65
2021/10/21 06:02:38;;;;;;;152.60;145.97;;;10.20;99.90;;;;;;4363099;33;20167;-64
2021/10/21 06:05:07;;;;;;;153.83;147.57;;;10.20;99.90;;;;;;4363283;32;20195;-64
2021/10/21 06:07:34;;;;;;;157.83;151.20;;;10.20;99.90;;;;;;4363487;32;20190;-64
2021/10/21 06:10:01;;;;;;;145.47;139.33;;;10.20;99.90;;;;;;4364373;32;20182;-64
2021/10/21 06:12:31;;;;;;;144.53;137.90;;;10.20;99.90;;;;;;4362860;32;20153;-64
2021/10/21 06:14:58;;;;;;;157.40;150.53;;;10.20;99.90;;;;;;4362282;32;20622;-64
2021/10/21 06:17:25;;;;;;;160.40;153.23;;;10.30;99.90;;;;;;4363625;32;20165;-64
2021/10/21 06:19:52;;;;;;;151.70;144.13;;;10.20;99.90;;;;;;4362529;33;20192;-64
2021/10/21 06:22:19;;;;;;;154.33;146.63;;;10.20;99.90;;;;;;4361937;33;20522;-64
2021/10/21 06:24:48;;;;;;;150.97;144.43;;;10.20;99.90;;;;;;4361083;32;20188;-64
2021/10/21 06:27:15;;;;;;;141.83;135.37;;;10.10;99.90;;;;;;4362629;32;20165;-65
2021/10/21 06:29:43;;;;;;;152.63;146.03;;;10.10;99.90;;;;;;4361968;33;20156;-65
2021/10/21 06:32:11;;;;;;;159.23;152.27;;;10.10;99.90;;;;;;4361535;32;20160;-64
2021/10/21 06:34:40;;;;;;;151.43;144.13;;;10.10;99.90;;;;;;4361974;32;20541;-65
2021/10/21 06:37:08;;;;;;;151.00;142.87;;;10.10;99.90;;;;;;4361702;32;20545;-64
2021/10/21 06:39:38;;;;;;;154.43;147.33;;;10.10;99.90;;;;;;4362967;32;20234;-64
2021/10/21 06:42:05;;;;;;;151.30;144.07;;;10.10;99.90;;;;;;4360008;33;20187;-65
2021/10/21 06:44:32;;;;;;;155.97;147.97;;;10.10;99.90;;;;;;4361901;32;20623;-64
2021/10/21 06:47:00;;;;;;;146.50;139.63;;;10.10;99.90;;;;;;4360332;32;20198;-64
2021/10/21 06:49:30;;;;;;;151.80;144.83;;;10.10;99.90;;;;;;4360924;32;20156;-64
2021/10/21 06:51:56;;;;;;;142.73;135.87;;;10.20;99.90;;;;;;4361702;33;20165;-64
2021/10/21 06:54:23;;;;;;;146.73;139.50;;;10.20;99.90;;;;;;4359923;32;20474;-64
2021/10/21 06:56:50;;;;;;;137.23;130.87;;;10.30;99.90;;;;;;4362692;32;20581;-64
2021/10/21 06:59:18;;;;;;;142.60;136.03;;;10.20;99.90;;;;;;4360773;32;20227;-64
2021/10/21 07:01:45;;;;;;;137.37;130.63;;;10.30;99.90;;;;;;4363015;32;20618;-64
2021/10/21 07:04:13;;;;;;;100.97;95.20;;;10.30;99.90;;;;;;4361096;32;20295;-64
2021/10/21 07:06:40;;;;;;;61.33;58.10;;;10.40;99.90;;;;;;4361182;32;20172;-64
2021/10/21 07:09:07;;;;;;;55.63;51.47;;;10.40;99.90;;;;;;4361197;32;20253;-64
2021/10/21 07:11:34;;;;;;;45.80;43.00;;;10.40;99.90;;;;;;4361013;32;20190;-64
2021/10/21 07:14:00;;;;;;;44.77;42.00;;;10.50;99.90;;;;;;4360747;33;20620;-64
2021/10/21 07:16:27;;;;;;;41.73;39.00;;;10.60;99.90;;;;;;4361424;32;20224;-63
2021/10/21 07:18:54;;;;;;;38.27;35.97;;;10.60;99.90;;;;;;4360856;33;20611;-64
2021/10/21 07:21:23;;;;;;;37.63;34.77;;;10.60;99.90;;;;;;4360601;32;20180;-63
2021/10/21 07:23:50;;;;;;;40.10;37.23;;;10.50;99.90;;;;;;4361318;32;20172;-63
2021/10/21 07:26:17;;;;;;;36.17;33.60;;;10.50;99.90;;;;;;4360672;33;20220;-64
2021/10/21 07:28:45;;;;;;;40.80;37.67;;;10.40;99.90;;;;;;4360682;32;20156;-64
2021/10/21 07:31:15;;;;;;;46.63;43.33;;;10.30;99.90;;;;;;4360525;32;20173;-64
2021/10/21 07:33:42;;;;;;;49.43;46.23;;;10.30;99.90;;;;;;4360815;32;20271;-64
2021/10/21 07:36:10;;;;;;;56.93;52.97;;;10.30;99.90;;;;;;4359053;32;20592;-64
2021/10/21 07:38:39;;;;;;;80.87;75.50;;;10.30;99.90;;;;;;4360324;33;20234;-64
2021/10/21 07:41:06;;;;;;;77.90;72.23;;;10.20;99.90;;;;;;4359900;33;20169;-64
2021/10/21 07:43:35;;;;;;;75.43;71.10;;;10.30;99.90;;;;;;4360110;32;20223;-64
2021/10/21 07:46:02;;;;;;;71.20;66.07;;;10.30;99.90;;;;;;4360517;32;20464;-64
2021/10/21 07:48:30;;;;;;;64.03;60.20;;;10.40;99.90;;;;;;4359536;33;20172;-64
2021/10/21 07:51:00;;;;;;;61.40;57.53;;;10.50;99.90;;;;;;4360082;32;20234;-63
2021/10/21 07:53:28;;;;;;;50.30;46.50;;;10.60;99.90;;;;;;4357269;32;20160;-64
2021/10/21 07:55:56;;;;;;;39.30;36.47;;;10.70;99.90;;;;;;4359727;32;20191;-63
2021/10/21 07:58:23;;;;;;;42.20;39.00;;;10.70;99.90;;;;;;4358989;32;20214;-63
2021/10/21 08:00:50;;;;;;;36.20;33.13;;;10.70;99.90;;;;;;4359153;32;20669;-64
2021/10/21 08:03:18;;;;;;;39.43;36.53;;;10.80;99.90;;;;;;4359251;32;20165;-64
2021/10/21 08:05:45;;;;;;;40.57;37.50;;;10.80;99.90;;;;;;4357702;32;20619;-63
2021/10/21 08:08:12;;;;;;;35.17;32.63;;;10.80;99.90;;;;;;4359079;32;20179;-64
2021/10/21 08:10:39;;;;;;;36.23;33.90;;;10.70;99.90;;;;;;4356918;32;20180;-63
2021/10/21 08:13:10;;;;;;;36.50;34.17;;;10.70;99.90;;;;;;4359836;33;20156;-64
2021/10/21 08:15:37;;;;;;;36.27;34.17;;;10.60;99.90;;;;;;4360185;32;20216;-64
2021/10/21 08:18:03;;;;;;;37.93;35.57;;;10.60;99.90;;;;;;4361483;32;20486;-63
2021/10/21 08:20:34;;;;;;;34.73;32.63;;;10.60;99.90;;;;;;4357815;33;20165;-63
2021/10/21 08:23:02;;;;;;;36.50;33.97;;;10.70;99.90;;;;;;4361346;32;20174;-64
2021/10/21 08:25:29;;;;;;;38.97;36.53;;;10.80;99.90;;;;;;4360272;32;20593;-64
2021/10/21 08:27:55;;;;;;;34.50;32.60;;;11.00;99.90;;;;;;4359850;32;20156;-63
2021/10/21 08:30:25;;;;;;;36.70;34.70;;;11.30;99.90;;;;;;4361561;32;20585;-63
2021/10/21 08:32:54;;;;;;;35.23;32.87;;;11.20;99.90;;;;;;4358021;33;20194;-63
2021/10/21 08:35:22;;;;;;;37.40;35.60;;;10.80;99.90;;;;;;4359223;33;20199;-63
2021/10/21 08:37:49;;;;;;;33.00;31.40;;;10.50;99.90;;;;;;4359914;33;20495;-63
2021/10/21 08:40:16;;;;;;;34.67;32.60;;;10.30;99.90;;;;;;4359699;32;20171;-63
2021/10/21 08:42:45;;;;;;;36.00;34.07;;;10.20;99.90;;;;;;4360434;32;20557;-63
2021/10/21 08:45:12;;;;;;;36.90;34.80;;;10.20;99.90;;;;;;4359768;32;20609;-63
2021/10/21 08:47:42;;;;;;;38.50;36.50;;;10.20;99.90;;;;;;4359581;33;20560;-63
2021/10/21 08:50:11;;;;;;;42.10;39.47;;;10.20;99.90;;;;;;4359809;32;20187;-63
2021/10/21 08:52:38;;;;;;;39.67;37.37;;;10.30;99.90;;;;;;4359699;32;20167;-63
2021/10/21 08:55:06;;;;;;;43.77;41.10;;;10.40;99.90;;;;;;4356062;32;20195;-63
2021/10/21 08:57:33;;;;;;;41.47;39.07;;;10.50;99.90;;;;;;4355596;32;20211;-62
2021/10/21 09:00:00;;;;;;;51.10;48.43;;;10.40;99.90;;;;;;4358695;33;20181;-63
2021/10/21 09:02:36;;;;;;;61.27;57.47;;;10.50;99.90;;;;;;4360068;32;20196;-64
2021/10/21 09:05:14;;;;;;;48.27;45.70;;;10.70;99.90;;;;;;4359447;33;20250;-62
2021/10/21 09:07:58;;;;;;;52.27;49.37;;;10.80;99.90;;;;;;4359873;32;20168;-63
2021/10/21 09:10:26;;;;;;;68.57;64.73;;;10.80;99.90;;;;;;4361082;32;20161;-62
2021/10/21 09:12:53;;;;;;;80.70;76.53;;;10.90;99.90;;;;;;4359967;32;20185;-63
2021/10/21 09:15:23;;;;;;;80.27;75.90;;;11.00;99.90;;;;;;4360143;33;20160;-62
2021/10/21 09:17:53;;;;;;;64.37;60.93;;;11.10;99.90;;;;;;4359780;33;20148;-65
2021/10/21 09:20:37;;;;;;;60.40;57.33;;;11.10;99.90;;;;;;4356796;32;20158;-63
2021/10/21 09:23:07;;;;;;;75.70;71.80;;;11.00;99.90;;;;;;4359372;32;20489;-63
2021/10/21 09:25:35;;;;;;;60.13;57.07;;;10.90;99.90;;;;;;4359396;33;20225;-62
2021/10/21 09:28:19;;;;;;;67.13;63.93;;;10.90;99.90;;;;;;4358705;33;20223;-63
2021/10/21 09:30:56;;;;;;;64.63;61.30;;;10.90;99.90;;;;;;4359062;32;20187;-64
2021/10/21 09:33:23;;;;;;;73.23;70.07;;;10.90;99.90;;;;;;4361362;32;20152;-64
2021/10/21 09:36:01;;;;;;;84.93;81.17;;;11.00;99.90;;;;;;4363558;32;20193;-64
2021/10/21 09:38:30;;;;;;;86.57;82.47;;;11.10;99.90;;;;;;4365621;32;20236;-64
2021/10/21 09:41:08;;;;;;;73.70;70.17;;;11.00;99.90;;;;;;4366464;32;20168;-63
2021/10/21 09:43:36;;;;;;;90.17;85.63;;;10.90;99.90;;;;;;4370003;32;20164;-64
2021/10/21 09:46:03;;;;;;;87.17;83.13;;;10.80;99.90;;;;;;4352814;33;20377;-65
2021/10/21 09:48:30;;;;;;;105.37;100.23;;;10.80;99.90;;;;;;4359593;33;20291;-64
2021/10/21 09:50:57;;;;;;;109.00;103.93;;;10.80;99.90;;;;;;4360654;32;20184;-64
2021/10/21 09:53:29;;;;;;;112.53;107.43;;;10.80;99.90;;;;;;4359391;32;20182;-63
2021/10/21 09:56:04;;;;;;;116.50;111.00;;;10.90;99.90;;;;;;4362898;32;20165;-64
2021/10/21 09:58:35;;;;;;;125.87;120.57;;;11.10;99.90;;;;;;4359807;32;20153;-64
2021/10/21 10:01:06;;;;;;;127.80;122.37;;;11.20;99.90;;;;;;4361478;32;20285;-65
2021/10/21 10:03:34;;;;;;;127.40;121.27;;;11.30;99.90;;;;;;4364781;32;20193;-65
2021/10/21 10:06:01;;;;;;;135.73;129.43;;;11.30;99.90;;;;;;4365849;32;20181;-64
2021/10/21 10:08:30;;;;;;;108.13;103.43;;;11.50;99.90;;;;;;4367195;32;20160;-64
2021/10/21 10:11:01;;;;;;;105.23;100.07;;;11.30;99.90;;;;;;4366837;32;20167;-65
2021/10/21 10:13:28;;;;;;;112.87;107.27;;;11.30;99.90;;;;;;4369658;32;20625;-63
2021/10/21 10:15:56;;;;;;;116.93;111.67;;;11.30;99.90;;;;;;4365634;32;20168;-63
2021/10/21 10:18:25;;;;;;;111.80;106.93;;;11.50;99.90;;;;;;4365088;32;20202;-64
2021/10/21 10:21:03;;;;;;;102.90;98.27;;;11.60;99.90;;;;;;4365185;32;20265;-63
2021/10/21 10:23:33;;;;;;;71.07;67.33;;;11.80;99.90;;;;;;4365969;32;20183;-63
2021/10/21 10:26:00;;;;;;;52.07;49.57;;;11.80;99.90;;;;;;4365104;32;20192;-62
2021/10/21 10:28:51;;;;;;;56.90;53.50;;;11.60;99.90;;;;;;4366378;32;20183;-63
2021/10/21 10:31:40;;;;;;;61.13;58.27;;;11.50;99.90;;;;;;4367030;32;20561;-64
2021/10/21 10:34:44;;;;;;;65.87;62.43;;;11.50;99.90;;;;;;4367105;32;20189;-65
2021/10/21 10:37:50;;;;;;;56.50;53.13;;;11.80;99.90;;;;;;4369201;32;20220;-65
2021/10/21 10:41:10;;;;;;;51.23;48.33;;;11.90;99.90;;;;;;4315745;33;20169;-64
2021/10/21 10:43:43;;;;;;;46.67;44.30;;;11.80;99.90;;;;;;4243444;33;20164;-65
2021/10/21 10:46:11;;;;;;;46.10;43.37;;;11.80;99.90;;;;;;4243763;33;20183;-65
2021/10/21 10:48:53;;;;;;;41.93;39.87;;;11.90;99.90;;;;;;4240297;33;20181;-65
2021/10/21 10:51:23;;;;;;;43.60;41.03;;;12.20;99.90;;;;;;4242072;33;20626;-64
2021/10/21 10:53:51;;;;;;;45.13;42.77;;;12.20;99.90;;;;;;4242799;33;20244;-64
2021/10/21 10:56:55;;;;;;;43.23;41.00;;;12.00;99.90;;;;;;4243973;33;20185;-63
2021/10/21 10:59:33;;;;;;;46.97;43.97;;;11.90;99.90;;;;;;4242496;33;20476;-63
2021/10/21 11:02:32;;;;;;;42.77;40.30;;;11.90;99.90;;;;;;4242349;33;20574;-63
2021/10/21 11:05:01;;;;;;;42.70;40.53;;;11.60;99.90;;;;;;4242560;33;20553;-63
2021/10/21 11:07:30;;;;;;;41.57;39.57;;;11.20;99.90;;;;;;4272225;33;20174;-63
2021/10/21 11:10:30;;;;;;;40.57;38.73;;;10.90;99.90;;;;;;4314791;33;20193;-65
2021/10/21 11:12:59;;;;;;;40.10;37.77;;;10.70;99.90;;;;;;4313932;33;20204;-64
2021/10/21 11:15:41;;;;;;;40.80;38.90;;;10.50;99.90;;;;;;4315717;33;20310;-66
2021/10/21 11:18:08;;;;;;;40.57;38.57;;;10.30;99.90;;;;;;4368737;32;20203;-65
2021/10/21 11:20:40;;;;;;;36.60;34.53;;;10.30;99.90;;;;;;4361275;33;20156;-65
2021/10/21 11:23:08;;;;;;;38.53;36.83;;;10.20;99.90;;;;;;4361564;33;20172;-65
2021/10/21 11:25:38;;;;;;;38.93;37.03;;;10.00;99.90;;;;;;4363050;32;20165;-65
2021/10/21 11:28:05;;;;;;;46.00;43.87;;;9.90;99.90;;;;;;4363127;32;20173;-65
2021/10/21 11:30:34;;;;;;;71.33;67.73;;;9.90;99.90;;;;;;4361274;33;20211;-65
2021/10/21 11:33:04;;;;;;;83.97;80.37;;;10.10;99.90;;;;;;4361496;33;20167;-64
2021/10/21 11:35:32;;;;;;;73.60;70.20;;;10.30;99.90;;;;;;4361205;33;20156;-65
2021/10/21 11:38:00;;;;;;;69.60;66.57;;;10.40;99.90;;;;;;4361199;33;20176;-65
2021/10/21 11:40:31;;;;;;;56.67;53.60;;;10.40;99.90;;;;;;4361388;32;20252;-66
2021/10/21 11:42:59;;;;;;;46.00;43.83;;;10.40;99.90;;;;;;4358862;33;20211;-65
2021/10/21 11:45:28;;;;;;;49.30;46.60;;;10.00;99.90;;;;;;4353120;32;20492;-64
2021/10/21 11:48:00;;;;;;;51.40;48.87;;;10.00;99.90;;;;;;4346221;33;20157;-64
2021/10/21 11:50:40;;;;;;;52.90;50.03;;;10.10;99.90;;;;;;4346279;33;20179;-64
2021/10/21 11:53:08;;;;;;;59.93;57.20;;;10.10;99.90;;;;;;4345986;33;20158;-65
2021/10/21 11:55:38;;;;;;;64.07;60.77;;;10.10;99.90;;;;;;4346345;33;20206;-66
2021/10/21 11:58:13;;;;;;;62.20;58.93;;;10.10;99.90;;;;;;4346325;33;20181;-64
2021/10/21 12:00:41;;;;;;;58.20;55.00;;;10.10;99.90;;;;;;4346289;33;20152;-65
2021/10/21 12:03:08;;;;;;;66.80;62.73;;;10.20;99.90;;;;;;4346169;33;20168;-64
2021/10/21 12:05:40;;;;;;;59.90;56.97;;;10.40;99.90;;;;;;4347798;33;20168;-64
2021/10/21 12:08:10;;;;;;;74.00;70.27;;;10.50;99.90;;;;;;4347916;33;20490;-65
2021/10/21 12:10:43;;;;;;;57.33;54.33;;;10.60;99.90;;;;;;4346094;33;20187;-64
2021/10/21 12:13:21;;;;;;;45.73;43.27;;;10.70;99.90;;;;;;4345889;33;20161;-64
2021/10/21 12:15:55;;;;;;;50.17;47.77;;;10.60;99.90;;;;;;4345771;33;20161;-64
2021/10/21 12:18:26;;;;;;;48.60;45.93;;;10.50;99.90;;;;;;4346815;33;20212;-65
2021/10/21 12:20:55;;;;;;;43.20;41.17;;;10.40;99.90;;;;;;4347461;33;20172;-63
2021/10/21 12:23:27;;;;;;;45.47;42.83;;;10.20;99.90;;;;;;4346487;33;20204;-64
2021/10/21 12:25:55;;;;;;;63.17;59.83;;;10.20;99.90;;;;;;4345622;33;20150;-64